createdAt,value
2019-01-21T00:01:29.788Z,13.37
2019-01-21T00:04:01.024Z,17.17
2019-01-21T00:06:31.934Z,13.83
2019-01-21T00:09:02.036Z,17.43
2019-01-21T00:11:33.997Z,17.10
2019-01-21T00:14:03.811Z,14.07
2019-01-21T00:16:33.974Z,17.30
2019-01-21T00:19:04.806Z,14.73
2019-01-21T00:21:36.025Z,15.90
2019-01-21T00:24:07.632Z,14.10
2019-01-21T00:26:38.546Z,16.93
2019-01-21T00:29:08.550Z,16.47
2019-01-21T00:31:38.949Z,14.17
2019-01-21T00:34:08.916Z,16.30
2019-01-21T00:36:42.149Z,14.57
2019-01-21T00:39:14.225Z,16.67
2019-01-21T00:41:45.809Z,17.93
2019-01-21T00:44:17.723Z,13.87
2019-01-21T00:46:48.046Z,17.57
2019-01-21T00:49:21.049Z,16.97
2019-01-21T00:51:52.949Z,17.80
2019-01-21T00:54:25.869Z,17.70
2019-01-21T00:56:57.157Z,14.80
2019-01-21T00:59:28.331Z,17.93
2019-01-21T01:01:58.224Z,16.90
2019-01-21T01:04:29.327Z,13.70
2019-01-21T01:06:59.626Z,17.00
2019-01-21T01:09:30.815Z,17.63
2019-01-21T01:12:03.816Z,14.40
2019-01-21T01:14:34.090Z,17.03
2019-01-21T01:17:05.231Z,16.77
2019-01-21T01:19:35.108Z,17.60
2019-01-21T01:22:05.754Z,16.17
2019-01-21T01:24:37.186Z,13.33
2019-01-21T01:27:09.798Z,16.73
2019-01-21T01:29:40.928Z,17.33
2019-01-21T01:32:12.380Z,14.77
2019-01-21T01:34:43.434Z,16.60
2019-01-21T01:37:13.386Z,15.33
2019-01-21T01:39:43.284Z,16.73
2019-01-21T01:42:14.398Z,17.10
2019-01-21T01:44:45.627Z,14.27
2019-01-21T01:47:15.837Z,16.80
2019-01-21T01:49:47.086Z,14.23
2019-01-21T01:52:19.213Z,17.63
2019-01-21T01:54:49.254Z,13.70
2019-01-21T01:57:23.150Z,17.50
2019-01-21T01:59:55.057Z,14.33
2019-01-21T02:02:26.139Z,16.90
2019-01-21T02:04:58.914Z,14.07
2019-01-21T02:07:30.793Z,17.27
2019-01-21T02:10:00.791Z,16.77
2019-01-21T02:12:30.562Z,14.20
2019-01-21T02:15:04.652Z,17.27
2019-01-21T02:17:36.612Z,16.40
2019-01-21T02:20:10.272Z,14.23
2019-01-21T02:22:43.553Z,16.87
2019-01-21T02:25:17.961Z,13.70
2019-01-21T02:28:13.935Z,16.93
2019-01-21T02:30:48.020Z,16.73
2019-01-21T02:33:28.079Z,14.13
2019-01-21T02:35:59.459Z,17.07
2019-01-21T02:38:51.064Z,15.10
2019-01-21T02:41:23.506Z,18.43
2019-01-21T02:44:02.963Z,14.03
2019-01-21T02:46:54.653Z,17.20
2019-01-21T02:49:32.043Z,17.23
2019-01-21T02:52:22.104Z,17.33
2019-01-21T02:54:54.818Z,13.73
2019-01-21T02:57:37.375Z,16.50
2019-01-21T03:00:12.744Z,14.00
2019-01-21T03:02:45.025Z,17.20
2019-01-21T03:05:34.429Z,14.33
2019-01-21T03:08:14.601Z,16.43
2019-01-21T03:10:56.172Z,13.63
2019-01-21T03:13:27.609Z,16.10
2019-01-21T03:15:59.691Z,16.47
2019-01-21T03:18:56.701Z,13.03
2019-01-21T03:21:39.985Z,16.23
2019-01-21T03:24:12.688Z,13.40
2019-01-21T03:27:01.670Z,15.63
2019-01-21T03:29:50.589Z,15.70
2019-01-21T03:32:22.011Z,15.03
2019-01-21T03:34:56.181Z,11.90
2019-01-21T03:37:34.133Z,14.20
2019-01-21T03:40:20.041Z,14.30
2019-01-21T03:42:54.454Z,11.93
2019-01-21T03:45:26.621Z,14.50
2019-01-21T03:48:16.268Z,12.67
2019-01-21T03:50:57.306Z,13.90
2019-01-21T03:53:39.999Z,14.10
2019-01-21T03:56:10.757Z,11.40
2019-01-21T03:58:48.925Z,13.90
2019-01-21T04:01:24.435Z,12.40
2019-01-21T04:04:00.830Z,13.83
2019-01-21T04:06:37.755Z,12.50
2019-01-21T04:09:12.816Z,14.53
2019-01-21T04:12:08.529Z,12.67
2019-01-21T04:14:46.146Z,15.63
2019-01-21T04:17:24.539Z,15.07
2019-01-21T04:19:59.689Z,13.73
2019-01-21T04:22:34.806Z,15.80
2019-01-21T04:25:07.250Z,12.37
2019-01-21T04:27:48.016Z,14.73
2019-01-21T04:30:37.184Z,12.57
2019-01-21T04:33:11.164Z,15.07
2019-01-21T04:36:05.779Z,12.80
2019-01-21T04:39:02.795Z,15.17
2019-01-21T04:41:45.726Z,12.57
2019-01-21T04:44:20.030Z,14.47
2019-01-21T04:47:04.409Z,12.43
2019-01-21T04:49:37.632Z,15.03
2019-01-21T04:52:29.346Z,13.83
2019-01-21T04:55:00.706Z,15.10
2019-01-21T04:57:52.914Z,15.03
2019-01-21T05:00:42.565Z,12.17
2019-01-21T05:03:27.596Z,16.57
2019-01-21T05:06:07.826Z,13.67
2019-01-21T05:08:46.334Z,16.93
2019-01-21T05:11:22.629Z,12.03
2019-01-21T05:13:54.087Z,16.20
2019-01-21T05:16:43.576Z,12.97
2019-01-21T05:19:31.057Z,15.53
2019-01-21T05:22:05.199Z,13.70
2019-01-21T05:24:42.325Z,16.27
2019-01-21T05:27:18.090Z,15.60
2019-01-21T05:29:57.485Z,12.57
2019-01-21T05:32:31.891Z,15.37
2019-01-21T05:35:04.157Z,17.57
2019-01-21T05:37:43.948Z,13.30
2019-01-21T05:40:38.379Z,16.80
2019-01-21T05:43:12.557Z,13.50
2019-01-21T05:46:02.040Z,15.63
2019-01-21T05:48:36.274Z,12.67
2019-01-21T05:51:10.639Z,15.23
2019-01-21T05:53:50.133Z,12.70
2019-01-21T05:56:22.973Z,15.67
2019-01-21T05:59:04.351Z,13.37
2019-01-21T06:01:50.456Z,15.17
2019-01-21T06:04:28.974Z,13.00
2019-01-21T06:07:01.964Z,15.10
2019-01-21T06:09:43.206Z,15.87
2019-01-21T06:12:39.180Z,12.77
2019-01-21T06:15:16.700Z,15.10
2019-01-21T06:17:48.127Z,13.43
2019-01-21T06:20:33.588Z,15.37
2019-01-21T06:23:20.011Z,13.40
2019-01-21T06:25:55.358Z,15.43
2019-01-21T06:28:53.933Z,13.10
2019-01-21T06:31:35.070Z,17.13
2019-01-21T06:34:20.007Z,13.27
2019-01-21T06:36:55.261Z,28.63
2019-01-21T06:39:28.589Z,24.33
2019-01-21T06:42:13.453Z,18.10
2019-01-21T06:44:58.518Z,13.43
2019-01-21T06:47:36.015Z,16.40
2019-01-21T06:50:23.356Z,13.67
2019-01-21T06:53:12.421Z,16.27
2019-01-21T06:55:48.385Z,12.30
2019-01-21T06:58:24.628Z,15.77
2019-01-21T07:01:08.533Z,12.50
2019-01-21T07:04:00.522Z,15.63
2019-01-21T07:07:02.149Z,15.43
2019-01-21T07:09:49.105Z,12.30
2019-01-21T07:12:27.015Z,15.33
2019-01-21T07:15:17.684Z,15.50
2019-01-21T07:18:15.049Z,12.47
2019-01-21T07:20:56.706Z,15.27
2019-01-21T07:23:49.333Z,13.60
2019-01-21T07:26:25.357Z,14.87
2019-01-21T07:29:33.857Z,13.43
2019-01-21T07:32:12.399Z,15.17
2019-01-21T07:35:03.491Z,14.03
2019-01-21T07:37:39.073Z,16.97
2019-01-21T07:40:11.615Z,13.60
2019-01-21T07:42:55.817Z,16.03
2019-01-21T07:45:34.161Z,14.40
2019-01-21T07:48:24.463Z,17.60
2019-01-21T07:51:17.223Z,13.47
2019-01-21T07:53:53.498Z,16.40
2019-01-21T07:56:44.607Z,13.30
2019-01-21T07:59:35.372Z,16.70
2019-01-21T08:02:13.101Z,17.07
2019-01-21T08:05:13.049Z,16.47
2019-01-21T08:07:46.390Z,14.20
2019-01-21T08:10:27.873Z,17.67
2019-01-21T08:13:09.626Z,14.30
2019-01-21T08:15:45.130Z,16.67
2019-01-21T08:18:43.546Z,13.13
2019-01-21T08:21:26.713Z,16.90
2019-01-21T08:23:58.986Z,13.57
2019-01-21T08:26:43.121Z,15.67
2019-01-21T08:29:23.087Z,14.03
2019-01-21T08:32:00.313Z,17.60
2019-01-21T08:34:42.168Z,16.80
2019-01-21T08:37:39.207Z,12.97
2019-01-21T08:40:28.686Z,16.47
2019-01-21T08:43:08.042Z,13.20
2019-01-21T08:45:39.495Z,17.00
2019-01-21T08:48:13.660Z,14.13
2019-01-21T08:51:03.630Z,16.03
2019-01-21T08:53:35.789Z,16.40
2019-01-21T08:56:20.088Z,15.97
2019-01-21T08:58:52.374Z,14.00
2019-01-21T09:01:41.144Z,17.57
2019-01-21T09:04:13.310Z,13.23
2019-01-21T09:07:13.417Z,16.60
2019-01-21T09:09:49.136Z,14.03
2019-01-21T09:12:23.537Z,16.73
2019-01-21T09:14:58.921Z,13.93
2019-01-21T09:17:36.135Z,18.37
2019-01-21T09:20:28.377Z,14.83
2019-01-21T09:23:13.170Z,16.80
2019-01-21T09:25:57.865Z,14.57
2019-01-21T09:28:46.665Z,17.00
2019-01-21T09:31:31.063Z,14.20
2019-01-21T09:34:02.413Z,16.50
2019-01-21T09:36:45.983Z,13.63
2019-01-21T09:39:37.587Z,16.63
2019-01-21T09:42:23.024Z,14.33
2019-01-21T09:45:02.414Z,16.80
2019-01-21T09:47:31.445Z,14.60
2019-01-21T09:50:02.078Z,17.57
2019-01-21T09:52:32.929Z,14.67
2019-01-21T09:55:04.022Z,17.17
2019-01-21T09:57:36.345Z,15.30
2019-01-21T10:00:15.277Z,18.90
2019-01-21T10:02:48.336Z,14.63
2019-01-21T10:05:18.300Z,18.80
2019-01-21T10:07:55.790Z,15.73
2019-01-21T10:10:43.133Z,18.40
2019-01-21T10:13:51.785Z,16.30
2019-01-21T10:16:26.146Z,19.47
2019-01-21T10:19:06.477Z,16.00
2019-01-21T10:22:08.825Z,18.33
2019-01-21T10:24:40.822Z,16.40
2019-01-21T10:27:15.913Z,19.80
2019-01-21T10:29:51.049Z,17.23
2019-01-21T10:32:34.633Z,21.03
2019-01-21T10:35:10.561Z,20.73
2019-01-21T10:38:15.829Z,20.00
2019-01-21T10:40:55.625Z,17.97
2019-01-21T10:43:28.051Z,20.97
2019-01-21T10:46:05.231Z,17.47
2019-01-21T10:48:43.446Z,22.47
2019-01-21T10:51:34.047Z,18.37
2019-01-21T10:54:15.711Z,22.60
2019-01-21T10:57:05.089Z,18.17
2019-01-21T10:59:53.000Z,18.40
2019-01-21T11:02:24.225Z,22.23
2019-01-21T11:05:04.986Z,18.83
2019-01-21T11:07:39.211Z,22.63
2019-01-21T11:10:37.844Z,18.37
2019-01-21T11:13:26.821Z,21.57
2019-01-21T11:16:08.873Z,18.33
2019-01-21T11:18:44.315Z,22.40
2019-01-21T11:21:24.446Z,22.63
2019-01-21T11:24:05.777Z,18.80
2019-01-21T11:26:56.737Z,21.20
2019-01-21T11:29:38.017Z,22.33
2019-01-21T11:32:26.054Z,18.33
2019-01-21T11:35:04.608Z,22.57
2019-01-21T11:37:47.222Z,18.93
2019-01-21T11:40:27.775Z,21.37
2019-01-21T11:43:19.841Z,20.43
2019-01-21T11:46:16.285Z,17.93
2019-01-21T11:49:05.749Z,21.00
2019-01-21T11:51:55.542Z,21.80
2019-01-21T11:54:46.025Z,21.63
2019-01-21T11:57:26.707Z,18.60
2019-01-21T12:00:33.502Z,22.23
2019-01-21T12:03:14.697Z,18.20
2019-01-21T12:05:47.899Z,21.50
2019-01-21T12:08:40.262Z,19.33
2019-01-21T12:11:25.601Z,23.93
2019-01-21T12:14:18.043Z,19.63
2019-01-21T12:17:13.478Z,23.17
2019-01-21T12:20:05.338Z,23.37
2019-01-21T12:22:56.191Z,23.43
2019-01-21T12:25:31.545Z,24.07
2019-01-21T12:28:15.949Z,20.30
2019-01-21T12:31:09.731Z,23.73
2019-01-21T12:33:47.669Z,24.13
2019-01-21T12:36:27.885Z,23.90
2019-01-21T12:39:08.026Z,20.40
2019-01-21T12:41:59.991Z,24.03
2019-01-21T12:44:54.473Z,22.77
2019-01-21T12:47:35.621Z,24.43
2019-01-21T12:50:23.970Z,24.70
2019-01-21T12:52:57.736Z,22.13
2019-01-21T12:55:32.957Z,24.13
2019-01-21T12:58:29.961Z,20.70
2019-01-21T13:01:28.175Z,25.20
2019-01-21T13:04:11.187Z,20.67
2019-01-21T13:06:47.997Z,23.23
2019-01-21T13:09:24.121Z,20.50
2019-01-21T13:12:13.329Z,24.60
2019-01-21T13:15:03.814Z,23.80
2019-01-21T13:17:42.958Z,23.90
2019-01-21T13:20:19.018Z,23.40
2019-01-21T13:23:08.442Z,24.03
2019-01-21T13:25:51.287Z,25.17
2019-01-21T13:28:37.430Z,24.90
2019-01-21T13:31:08.803Z,24.47
2019-01-21T13:34:17.448Z,24.13
2019-01-21T13:37:06.770Z,24.37
2019-01-21T13:40:01.834Z,23.67
2019-01-21T13:42:37.773Z,24.07
2019-01-21T13:45:32.875Z,23.93
2019-01-21T13:48:11.317Z,23.37
2019-01-21T13:50:54.614Z,20.37
2019-01-21T13:53:30.555Z,24.13
2019-01-21T13:56:03.557Z,18.53
2019-01-21T13:58:44.029Z,22.70
2019-01-21T14:01:27.711Z,23.53
2019-01-21T14:04:33.045Z,19.60
2019-01-21T14:07:08.809Z,23.77
2019-01-21T14:09:53.707Z,21.80
2019-01-21T14:12:28.933Z,19.80
2019-01-21T14:15:23.122Z,21.67
2019-01-21T14:18:22.461Z,22.17
2019-01-21T14:21:16.646Z,17.27
2019-01-21T14:24:02.877Z,20.73
2019-01-21T14:26:37.122Z,20.60
2019-01-21T14:29:29.148Z,19.87
2019-01-21T14:32:13.869Z,19.73
2019-01-21T14:35:01.574Z,20.37
2019-01-21T14:37:49.953Z,18.03
2019-01-21T14:40:27.906Z,18.27
2019-01-21T14:43:16.936Z,20.30
2019-01-21T14:45:56.093Z,15.80
2019-01-21T14:48:53.066Z,21.13
2019-01-21T14:51:36.166Z,20.13
2019-01-21T14:54:33.965Z,19.73
2019-01-21T14:57:15.698Z,20.97
2019-01-21T15:00:05.580Z,17.37
2019-01-21T15:02:48.928Z,19.57
2019-01-21T15:05:45.085Z,16.73
2019-01-21T15:08:21.153Z,18.57
2019-01-21T15:11:12.965Z,19.23
2019-01-21T15:13:55.009Z,21.70
2019-01-21T15:16:32.939Z,16.73
2019-01-21T15:19:10.334Z,19.50
2019-01-21T15:21:44.477Z,21.40
2019-01-21T15:24:43.758Z,17.17
2019-01-21T15:27:32.037Z,22.23
2019-01-21T15:30:14.233Z,19.50
2019-01-21T15:32:51.238Z,23.50
2019-01-21T15:35:36.105Z,26.17
2019-01-21T15:38:40.997Z,17.57
2019-01-21T15:41:33.376Z,22.73
2019-01-21T15:44:07.658Z,22.73
2019-01-21T15:46:53.005Z,19.93
2019-01-21T15:49:31.317Z,23.03
2019-01-21T15:52:06.390Z,19.40
2019-01-21T15:54:55.582Z,23.73
2019-01-21T15:57:40.949Z,24.47
2019-01-21T16:00:37.270Z,22.23
2019-01-21T16:03:13.928Z,23.53
2019-01-21T16:06:04.617Z,20.17
2019-01-21T16:08:44.923Z,23.23
2019-01-21T16:11:21.061Z,24.07
2019-01-21T16:13:52.870Z,24.50
2019-01-21T16:16:34.515Z,20.77
2019-01-21T16:19:11.297Z,23.97
2019-01-21T16:22:18.046Z,19.33
2019-01-21T16:24:52.322Z,23.83
2019-01-21T16:27:53.765Z,24.20
2019-01-21T16:30:42.117Z,23.23
2019-01-21T16:33:31.330Z,19.07
2019-01-21T16:36:06.975Z,23.13
2019-01-21T16:38:38.177Z,20.90
2019-01-21T16:41:19.726Z,26.23
2019-01-21T16:43:52.813Z,24.33
2019-01-21T16:46:22.118Z,20.43
2019-01-21T16:48:52.434Z,23.10
2019-01-21T16:51:23.185Z,23.57
2019-01-21T16:53:54.004Z,21.23
2019-01-21T16:56:25.432Z,23.93
2019-01-21T16:58:57.510Z,24.20
2019-01-21T17:01:28.348Z,25.43
2019-01-21T17:04:00.338Z,20.80
2019-01-21T17:06:31.443Z,25.20
2019-01-21T17:09:02.821Z,25.50
2019-01-21T17:11:33.093Z,25.30
2019-01-21T17:14:03.885Z,24.63
2019-01-21T17:16:34.889Z,25.23
2019-01-21T17:19:07.528Z,21.80
2019-01-21T17:21:38.685Z,26.57
2019-01-21T17:24:09.822Z,25.83
2019-01-21T17:26:40.023Z,22.50
2019-01-21T17:29:09.813Z,26.37
2019-01-21T17:31:42.586Z,26.47
2019-01-21T17:34:14.197Z,21.80
2019-01-21T17:36:45.857Z,27.03
2019-01-21T17:39:16.020Z,25.33
2019-01-21T17:41:48.223Z,22.30
2019-01-21T17:44:19.465Z,25.17
2019-01-21T17:46:50.406Z,27.20
2019-01-21T17:49:20.070Z,25.60
2019-01-21T17:51:50.149Z,27.10
2019-01-21T17:54:20.867Z,22.63
2019-01-21T17:56:52.329Z,25.27
2019-01-21T17:59:22.632Z,22.00
2019-01-21T18:01:53.771Z,27.70
2019-01-21T18:04:25.912Z,27.33
2019-01-21T18:07:01.578Z,23.23
2019-01-21T18:09:35.189Z,26.37
2019-01-21T18:12:09.071Z,22.40
2019-01-21T18:14:42.524Z,25.47
2019-01-21T18:17:16.912Z,26.50
2019-01-21T18:19:48.302Z,22.77
2019-01-21T18:22:19.878Z,27.33
2019-01-21T18:24:50.895Z,26.63
2019-01-21T18:27:23.002Z,22.43
2019-01-21T18:29:53.802Z,27.47
2019-01-21T18:32:23.523Z,26.60
2019-01-21T18:34:55.431Z,23.50
2019-01-21T18:37:26.161Z,27.10
2019-01-21T18:39:58.060Z,26.77
2019-01-21T18:42:31.018Z,26.03
2019-01-21T18:45:02.391Z,22.33
2019-01-21T18:47:32.590Z,26.43
2019-01-21T18:50:04.147Z,23.13
2019-01-21T18:52:38.526Z,27.07
2019-01-21T18:55:10.212Z,28.43
2019-01-21T18:57:41.875Z,23.37
2019-01-21T19:00:14.798Z,27.30
2019-01-21T19:02:45.471Z,21.73
2019-01-21T19:05:15.705Z,26.87
2019-01-21T19:07:46.381Z,27.33
2019-01-21T19:10:18.072Z,24.43
2019-01-21T19:12:50.697Z,26.43
2019-01-21T19:15:22.936Z,27.13
2019-01-21T19:17:53.026Z,23.70
2019-01-21T19:20:28.148Z,28.07
2019-01-21T19:22:58.966Z,24.17
2019-01-21T19:25:28.747Z,27.40
2019-01-21T19:27:59.464Z,28.47
2019-01-21T19:30:31.390Z,24.00
2019-01-21T19:33:02.439Z,29.50
2019-01-21T19:35:34.458Z,25.10
2019-01-21T19:38:05.141Z,24.57
2019-01-21T19:40:37.364Z,28.53
2019-01-21T19:43:07.966Z,24.37
2019-01-21T19:45:38.134Z,26.83
2019-01-21T19:48:09.173Z,23.97
2019-01-21T19:50:39.566Z,28.63
2019-01-21T19:53:12.404Z,27.97
2019-01-21T19:55:42.994Z,25.07
2019-01-21T19:58:13.300Z,27.37
2019-01-21T20:00:45.258Z,27.87
2019-01-21T20:03:16.323Z,24.17
2019-01-21T20:05:48.974Z,29.80
2019-01-21T20:08:19.804Z,23.47
2019-01-21T20:10:49.924Z,28.03
2019-01-21T20:13:23.695Z,24.17
2019-01-21T20:15:53.563Z,31.43
2019-01-21T20:18:25.316Z,25.77
2019-01-21T20:20:56.309Z,27.73
2019-01-21T20:23:28.116Z,24.80
2019-01-21T20:25:58.785Z,42.63
2019-01-21T20:28:30.631Z,25.50
2019-01-21T20:31:01.318Z,28.57
2019-01-21T20:33:32.470Z,24.17
2019-01-21T20:36:03.382Z,29.43
2019-01-21T20:38:34.397Z,28.30
2019-01-21T20:41:06.277Z,24.67
2019-01-21T20:43:38.051Z,29.23
2019-01-21T20:46:09.167Z,24.43
2019-01-21T20:48:40.344Z,28.53
2019-01-21T20:51:13.006Z,24.70
2019-01-21T20:53:44.185Z,27.63
2019-01-21T20:56:14.928Z,23.40
2019-01-21T20:58:45.539Z,26.83
2019-01-21T21:01:17.670Z,21.73
2019-01-21T21:03:51.550Z,27.47
2019-01-21T21:06:20.677Z,22.70
2019-01-21T21:08:50.460Z,25.80
2019-01-21T21:11:23.384Z,25.57
2019-01-21T21:13:53.263Z,22.30
2019-01-21T21:16:25.637Z,24.17
2019-01-21T21:18:57.820Z,22.83
2019-01-21T21:21:29.721Z,22.63
2019-01-21T21:24:00.104Z,26.27
2019-01-21T21:26:32.475Z,22.70
2019-01-21T21:29:03.470Z,26.20
2019-01-21T21:31:33.709Z,21.07
2019-01-21T21:34:05.637Z,25.57
2019-01-21T21:36:34.963Z,21.40
2019-01-21T21:39:08.585Z,25.33
2019-01-21T21:41:38.719Z,22.53
2019-01-21T21:44:07.986Z,26.47
2019-01-21T21:46:37.722Z,21.70
2019-01-21T21:49:09.471Z,25.60
2019-01-21T21:51:41.747Z,24.53
2019-01-21T21:54:14.351Z,20.53
2019-01-21T21:56:44.986Z,25.77
2019-01-21T21:59:16.030Z,20.83
2019-01-21T22:01:47.060Z,24.47
2019-01-21T22:04:17.343Z,20.03
2019-01-21T22:06:49.334Z,24.67
2019-01-21T22:09:20.417Z,24.13
2019-01-21T22:11:50.312Z,21.07
2019-01-21T22:14:24.699Z,25.50
2019-01-21T22:16:56.136Z,21.30
2019-01-21T22:19:27.593Z,25.13
2019-01-21T22:21:59.101Z,20.80
2019-01-21T22:24:29.011Z,24.67
2019-01-21T22:27:01.277Z,21.47
2019-01-21T22:29:32.169Z,23.70
2019-01-21T22:32:04.369Z,24.90
2019-01-21T22:34:35.169Z,21.37
2019-01-21T22:37:07.733Z,25.67
2019-01-21T22:39:38.053Z,20.10
2019-01-21T22:42:09.293Z,26.10
2019-01-21T22:44:40.229Z,20.97
2019-01-21T22:47:10.017Z,23.57
2019-01-21T22:49:41.170Z,21.30
2019-01-21T22:52:12.265Z,25.70
2019-01-21T22:54:42.905Z,22.07
2019-01-21T22:57:12.813Z,25.47
2019-01-21T22:59:44.644Z,24.27
2019-01-21T23:02:15.371Z,20.47
2019-01-21T23:04:46.420Z,24.47
2019-01-21T23:07:16.917Z,21.00
2019-01-21T23:09:49.498Z,23.33
2019-01-21T23:12:20.335Z,21.93
2019-01-21T23:14:50.136Z,24.13
2019-01-21T23:17:20.720Z,21.13
2019-01-21T23:19:52.805Z,21.93
2019-01-21T23:22:23.670Z,24.67
2019-01-21T23:24:54.344Z,23.90
2019-01-21T23:27:26.038Z,21.07
2019-01-21T23:29:56.842Z,24.33
2019-01-21T23:32:27.805Z,21.27
2019-01-21T23:34:58.874Z,24.90
2019-01-21T23:37:29.948Z,20.47
2019-01-21T23:40:00.647Z,23.70
2019-01-21T23:42:30.950Z,21.10
2019-01-21T23:45:02.588Z,23.93
2019-01-21T23:47:33.704Z,20.90
2019-01-21T23:50:04.054Z,24.60
2019-01-21T23:52:37.549Z,21.30
2019-01-21T23:55:10.826Z,24.70
2019-01-21T23:57:41.965Z,22.87
